Latest Weather Observations for Newdegate

IDW60801

Issued at 10:03 pm WST Sunday 22 October 2017 (issued every 30 minutes, with the page automatically refreshed every 10 minutes)

About weather observations | Map of weather stations | Latest weather observations for WA | Other Formats
Station Details ID: 010692 Name: NEWDEGATE RESEARCH STATION Lat: -33.11 Lon: 118.84 Height: 320.0 m
Data from the previous 72 hours. | See also: Recent months at Newdegate
Date/Time
WST
Temp
°C
App
Temp
°C
Dew
Point
°C
Rel
Hum
%
Delta-T
°C
Wind Press
QNH
hPa
Press
MSL
hPa
Rain since
9am
mm
Dir  Spd
km/h
Gust
km/h
Spd
kts
Gust
kts
22/10:00pm 14.1 14.8 12.1 88 1.1 CALM 0 0 0 0 1013.2 1012.7 4.6
22/09:30pm 14.6 14.7 12.6 88 1.1 SSW 4 4 2 2 1013.2 1012.7 4.6
22/09:00pm 14.6 15.4 12.5 87 1.2 CALM 0 0 0 0 1013.3 1012.8 4.6
22/08:30pm 15.3 16.2 12.8 85 1.4 CALM 0 0 0 0 1013.2 1012.7 4.6
22/08:00pm 15.4 15.1 12.7 84 1.5 S 6 7 3 4 1013.1 1012.6 4.6
22/07:30pm 16.6 17.5 12.9 79 2.1 CALM 0 0 0 0 1013.0 1012.5 4.6
22/07:00pm 17.3 18.0 13.4 78 2.2 E 2 6 1 3 1012.6 1012.1 4.6
22/06:30pm 18.8 18.5 13.2 70 3.2 E 7 9 4 5 1012.1 1011.7 4.6
22/06:00pm 20.6 20.5 13.3 63 4.2 ENE 6 7 3 4 1012.0 1011.6 4.6
22/05:30pm 21.6 21.6 13.5 60 4.7 ENE 6 7 3 4 1011.8 1011.3 4.6
22/05:00pm 21.6 21.5 13.2 59 4.9 NE 6 9 3 5 1011.8 1011.3 4.6
22/04:30pm 21.8 21.7 13.2 58 5.0 NNE 6 7 3 4 1011.8 1011.3 4.6
22/04:00pm 22.1 22.2 12.6 55 5.5 NNE 4 9 2 5 1011.6 1011.1 4.6
22/03:30pm 22.3 22.2 13.4 57 5.2 N 6 11 3 6 1011.7 1011.2 4.6
22/03:00pm 22.2 21.7 13.8 59 5.0 NE 9 17 5 9 1011.8 1011.3 4.6
22/02:30pm 22.0 20.7 14.9 64 4.3 NNE 15 22 8 12 1011.7 1011.2 4.6
22/02:00pm 21.7 20.3 14.4 63 4.3 NE 15 19 8 10 1012.1 1011.7 4.6
22/01:30pm 20.6 18.8 14.5 68 3.6 NE 17 22 9 12 1012.4 1011.9 4.6
22/01:00pm 20.3 18.7 14.0 67 3.7 NE 15 19 8 10 1012.9 1012.4 4.6
22/12:30pm 19.1 17.4 14.8 76 2.5 ENE 17 20 9 11 1013.4 1012.9 4.6
22/12:00pm 18.1 15.4 14.6 80 2.1 ENE 22 32 12 17 1013.7 1013.2 4.6
22/11:30am 17.5 15.1 15.5 88 1.2 E 22 32 12 17 1013.6 1013.1 4.6
22/11:00am 16.7 15.7 14.7 88 1.2 E 13 17 7 9 1014.8 1014.4 4.4
22/10:30am 16.0 15.3 14.2 89 1.0 ENE 11 19 6 10 1015.3 1014.9 4.2
22/10:00am 16.1 13.2 14.1 88 1.2 ENE 22 33 12 18 1014.9 1014.5 3.2
22/09:30am 16.5 13.1 13.8 84 1.5 NNE 24 30 13 16 1016.0 1015.5 1.0
22/09:00am 17.3 14.5 13.2 77 2.3 ENE 20 33 11 18 1015.5 1015.1 13.6
22/08:30am 17.9 12.9 13.4 75 2.6 E 32 46 17 25 1014.4 1013.9 13.6
22/08:15am 17.9 13.9 14.0 78 2.3 E 28 50 15 27 1014.0 1013.5 13.6
22/08:00am 16.7 13.0 13.8 83 1.7 E 26 39 14 21 1014.4 1013.9 13.6
22/07:46am 15.9 11.7 13.6 86 1.3 E 28 48 15 26 1014.5 1014.0 13.6
22/07:30am 15.8 11.2 13.6 87 1.3 E 30 43 16 23 1014.8 1014.4 13.6
22/07:00am 14.8 11.2 13.2 90 0.9 ESE 24 37 13 20 1015.1 1014.7 13.4
22/06:30am 14.7 9.6 13.2 91 0.8 E 32 43 17 23 1015.2 1014.8 11.8
22/06:23am 14.6 10.6 13.1 91 0.8 ESE 26 43 14 23 1015.7 1015.2 11.8
22/06:00am 14.7 10.0 13.1 90 0.9 E 30 39 16 21 1017.7 1017.3 9.8
22/05:30am 15.0 13.2 13.4 90 0.9 S 15 20 8 11 1019.0 1018.5 7.0
22/05:00am 15.1 14.1 13.3 89 1.0 SSW 11 15 6 8 1019.8 1019.3 5.8
22/04:30am 15.3 13.9 13.3 88 1.1 S 13 17 7 9 1019.2 1018.7 3.4
22/04:00am 15.2 13.8 13.4 89 1.0 S 13 19 7 10 1018.6 1018.2 2.8
22/03:30am 14.8 13.7 13.0 89 1.0 S 11 13 6 7 1019.0 1018.5 2.6
22/03:00am 14.6 13.4 12.8 89 1.0 SSE 11 13 6 7 1019.0 1018.5 2.4
22/02:30am 14.6 12.6 12.6 88 1.1 S 15 20 8 11 1019.4 1018.9 2.2
22/02:00am 14.8 12.7 12.3 85 1.4 SW 15 20 8 11 1019.8 1019.3 0.6
22/01:30am 14.8 12.2 11.9 83 1.6 SSW 17 20 9 11 1018.8 1018.4 0.4
22/01:00am 15.4 14.7 12.0 80 1.9 SW 7 11 4 6 1018.8 1018.4 0.0
22/12:30am 15.6 13.7 11.8 78 2.1 S 13 17 7 9 1018.7 1018.3 0.0
22/12:00am 16.0 14.4 11.4 74 2.5 S 11 15 6 8 1019.1 1018.6 0.0
 
Date/Time
WST
Temp
°C
App
Temp
°C
Dew
Point
°C
Rel
Hum
%
Delta-T
°C
Wind Press
QNH
hPa
Press
MSL
hPa
Rain since
9am
mm
Dir  Spd
km/h
Gust
km/h
Spd
kts
Gust
kts
21/11:30pm 16.4 15.0 10.9 70 3.0 SSE 9 13 5 7 1019.1 1018.6 0.0
21/11:00pm 17.0 15.5 10.6 66 3.5 SE 9 13 5 7 1019.2 1018.7 0.0
21/10:30pm 17.3 15.4 10.4 64 3.7 ESE 11 15 6 8 1019.2 1018.7 0.0
21/10:00pm 17.6 16.0 10.2 62 4.0 ESE 9 15 5 8 1019.5 1019.0 0.0
21/09:30pm 17.8 14.6 9.9 60 4.2 ESE 17 24 9 13 1019.5 1019.0 0.0
21/09:00pm 18.3 15.4 9.6 57 4.6 ESE 15 22 8 12 1020.1 1019.7 0.0
21/08:30pm 18.8 15.2 9.8 56 4.9 ESE 19 28 10 15 1020.6 1020.2 0.0
21/08:00pm 19.4 15.2 9.9 54 5.1 ESE 22 30 12 16 1020.5 1020.1 0.0
21/07:30pm 20.0 15.9 10.1 53 5.4 SE 22 32 12 17 1020.4 1020.0 0.0
21/07:00pm 20.7 17.2 10.8 53 5.5 SE 20 28 11 15 1020.3 1019.9 0.0
21/06:30pm 23.0 21.0 8.7 40 7.7 E 9 24 5 13 1020.2 1019.8 0.0
21/06:00pm 24.5 22.3 5.3 29 9.8 E 6 7 3 4 1019.9 1019.4 0.0
21/05:30pm 25.8 23.3 4.9 26 10.7 NNE 7 9 4 5 1020.1 1019.7 0.0
21/05:00pm 27.0 24.0 4.1 23 11.7 NE 9 13 5 7 1019.9 1019.4 0.0
21/04:30pm 27.6 24.6 4.0 22 12.1 ENE 9 13 5 7 1019.7 1019.2 0.0
21/04:00pm 27.8 23.5 3.5 21 12.3 ENE 15 24 8 13 1019.5 1019.0 0.0
21/03:30pm 27.8 23.9 3.5 21 12.3 ENE 13 17 7 9 1019.8 1019.3 0.0
21/03:00pm 27.4 23.5 3.2 21 12.2 ENE 13 19 7 10 1019.9 1019.4 0.0
21/02:30pm 28.2 24.2 3.1 20 12.7 NE 13 22 7 12 1020.0 1019.5 0.0
21/02:00pm 28.0 24.5 3.7 21 12.4 NE 11 24 6 13 1020.6 1020.2 0.0
21/01:30pm 27.6 22.9 3.3 21 12.3 NE 17 24 9 13 1021.3 1020.9 0.0
21/01:00pm 27.0 22.0 3.5 22 11.8 NE 19 26 10 14 1022.1 1021.7 0.0
21/12:30pm 27.0 22.5 4.1 23 11.7 NE 17 30 9 16 1022.8 1022.4 0.0
21/12:00pm 26.7 21.6 3.2 22 11.7 NE 19 26 10 14 1022.5 1022.0 0.0
21/11:30am 27.2 22.9 3.0 21 12.1 NE 15 24 8 13 1022.8 1022.4 0.0
21/11:00am 26.6 22.5 4.4 24 11.3 ENE 15 22 8 12 1022.9 1022.5 0.0
21/10:30am 25.8 22.0 5.9 28 10.4 E 15 24 8 13 1023.5 1023.1 0.0
21/10:00am 24.4 20.2 5.7 30 9.6 ENE 17 24 9 13 1023.7 1023.3 0.0
21/09:30am 23.4 19.2 5.8 32 9.1 NE 17 26 9 14 1024.4 1024.0 0.0
21/09:00am 20.8 16.2 6.7 40 7.2 ENE 20 28 11 15 1024.4 1024.0 0.0
21/08:30am 19.6 15.4 7.4 45 6.3 NE 19 26 10 14 1024.7 1024.3 0.0
21/08:00am 17.6 13.5 7.9 53 5.0 ENE 19 22 10 12 1024.8 1024.4 0.0
21/07:30am 15.5 11.9 8.3 62 3.7 ENE 17 20 9 11 1024.9 1024.5 0.0
21/07:00am 14.1 10.5 8.3 68 2.9 ENE 17 22 9 12 1024.9 1024.5 0.0
21/06:30am 12.4 10.8 8.7 78 1.9 E 7 13 4 7 1024.9 1024.5 0.0
21/06:00am 10.1 7.8 7.5 84 1.3 ESE 9 13 5 7 1024.4 1024.0 0.0
21/05:30am 9.4 6.3 7.3 87 1.0 ESE 13 17 7 9 1024.3 1023.9 0.0
21/05:00am 8.8 6.0 6.8 87 0.9 ESE 11 15 6 8 1024.4 1024.0 0.0
21/04:30am 8.7 6.2 6.7 87 0.9 ESE 9 11 5 6 1024.5 1024.1 0.0
21/04:00am 9.0 6.6 7.0 87 0.9 ESE 9 13 5 7 1024.5 1024.1 0.0
21/03:30am 9.4 6.7 7.3 87 1.0 ESE 11 15 6 8 1024.4 1024.0 0.0
21/03:00am 9.6 7.0 7.7 88 0.9 ESE 11 15 6 8 1024.5 1024.1 0.0
21/02:30am 9.8 6.8 7.9 88 0.9 ESE 13 17 7 9 1024.7 1024.3 0.0
21/02:00am 10.0 7.5 8.1 88 0.9 ESE 11 15 6 8 1025.0 1024.6 0.0
21/01:30am 10.2 7.3 8.3 88 0.9 ESE 13 17 7 9 1025.1 1024.7 0.0
21/01:00am 10.3 7.5 8.4 88 0.9 ESE 13 17 7 9 1025.4 1025.1 0.0
21/12:30am 10.4 7.9 8.3 87 1.0 ESE 11 15 6 8 1025.9 1025.5 0.0
21/12:00am 10.8 8.4 8.7 87 1.0 ESE 11 19 6 10 1026.2 1025.8 0.0
 
Date/Time
WST
Temp
°C
App
Temp
°C
Dew
Point
°C
Rel
Hum
%
Delta-T
°C
Wind Press
QNH
hPa
Press
MSL
hPa
Rain since
9am
mm
Dir  Spd
km/h
Gust
km/h
Spd
kts
Gust
kts
20/11:30pm 11.3 7.9 9.0 86 1.2 ESE 17 26 9 14 1026.3 1025.9 0.0
20/11:00pm 11.6 7.7 9.3 86 1.2 ESE 20 26 11 14 1026.5 1026.1 0.0
20/10:30pm 11.7 8.7 9.1 84 1.3 ESE 15 22 8 12 1026.7 1026.3 0.0
20/10:00pm 12.3 9.2 9.0 80 1.7 ESE 15 20 8 11 1026.9 1026.5 0.0
20/09:30pm 12.8 10.1 8.9 77 2.0 ESE 13 26 7 14 1026.8 1026.4 0.0
20/09:00pm 13.4 9.9 8.7 73 2.4 ESE 17 26 9 14 1026.7 1026.3 0.0
20/08:30pm 14.2 9.7 8.4 68 3.0 ESE 22 33 12 18 1026.7 1026.3 0.0
20/08:00pm 15.1 10.5 8.1 63 3.5 SE 22 33 12 18 1026.6 1026.2 0.0
20/07:30pm 16.3 10.5 8.0 58 4.3 SE 28 37 15 20 1026.2 1025.8 0.0
20/07:00pm 17.5 12.4 7.5 52 5.1 SE 24 33 13 18 1025.8 1025.4 0.0
20/06:30pm 19.2 13.6 7.0 45 6.3 SE 26 39 14 21 1025.0 1024.6 0.0
20/06:00pm 21.6 16.0 5.5 35 8.1 ESE 24 43 13 23 1024.5 1024.1 0.0
20/05:30pm 25.1 18.8 -4.2 14 12.7 ENE 20 26 11 14 1024.0 1023.6 0.0
20/05:00pm 26.0 19.8 -4.5 13 13.2 ENE 19 26 10 14 1023.9 1023.5 0.0
20/04:30pm 26.7 20.6 -4.0 13 13.5 ENE 19 28 10 15 1023.9 1023.5 0.0
20/04:00pm 27.0 20.2 -4.8 12 13.8 NE 22 30 12 16 1024.0 1023.6 0.0
20/03:30pm 27.6 21.5 -4.3 12 14.1 ENE 19 30 10 16 1023.9 1023.5 0.0
20/03:00pm 26.7 20.0 -4.0 13 13.5 ENE 22 33 12 18 1024.1 1023.7 0.0
20/02:30pm 26.6 19.5 -4.0 13 13.5 ENE 24 37 13 20 1024.5 1024.1 0.0
20/02:00pm 26.4 20.3 -2.3 15 12.9 ENE 20 41 11 22 1024.9 1024.5 0.0
20/01:30pm 25.8 19.9 -1.1 17 12.4 ENE 20 30 11 16 1025.3 1024.9 0.0
20/01:00pm 24.9 18.3 -0.3 19 11.6 E 24 41 13 22 1025.9 1025.5 0.0
20/12:30pm 24.5 18.1 0.8 21 11.2 E 24 35 13 19 1026.2 1025.8 0.0
20/12:00pm 24.1 17.1 1.7 23 10.7 ENE 28 43 15 23 1026.6 1026.2 0.0
20/11:30am 23.5 16.7 2.9 26 10.1 NE 28 43 15 23 1026.9 1026.5 0.0
20/11:00am 23.6 17.5 3.0 26 10.0 ENE 24 33 13 18 1027.5 1027.1 0.0
20/10:30am 23.3 17.8 3.8 28 9.7 NE 22 32 12 17 1027.8 1027.4 0.0
20/10:00am 22.1 17.3 4.7 32 8.6 ENE 19 26 10 14 1028.6 1028.3 0.0
20/09:30am 20.6 15.9 5.0 36 7.8 ENE 19 30 10 16 1029.0 1028.6 0.0
20/09:00am 18.5 13.8 5.0 41 6.6 ENE 19 28 10 15 1029.2 1028.8 0.0
20/08:30am 17.2 11.9 5.2 45 5.9 ENE 22 32 12 17 1029.3 1028.9 0.0
20/08:00am 15.8 11.1 6.0 52 4.8 ENE 20 28 11 15 1029.1 1028.7 0.0
20/07:30am 13.9 8.7 5.5 57 4.0 ENE 22 32 12 17 1029.0 1028.6 0.0
20/07:00am 12.5 8.0 6.1 65 3.1 ENE 19 28 10 15 1029.1 1028.7 0.0
20/06:30am 10.8 7.1 6.4 74 2.1 E 15 20 8 11 1029.2 1028.8 0.0
20/06:00am 8.8 6.3 6.4 85 1.1 ESE 9 11 5 6 1029.0 1028.6 0.0
20/05:30am 7.2 4.0 5.0 86 1.0 E 11 13 6 7 1028.7 1028.4 0.0
20/05:00am 6.9 4.3 4.4 84 1.1 ESE 7 7 4 4 1028.7 1028.4 0.0
20/04:30am 8.2 4.7 5.5 83 1.2 ESE 13 17 7 9 1028.3 1028.0 0.0
20/04:00am 8.4 5.3 5.5 82 1.3 E 11 15 6 8 1028.2 1027.9 0.0
20/03:30am 9.0 5.9 5.7 80 1.5 E 11 15 6 8 1028.3 1028.0 0.0
20/03:00am 9.2 5.4 5.9 80 1.5 E 15 19 8 10 1028.1 1027.8 0.0
20/02:30am 8.9 5.4 5.6 80 1.5 E 13 17 7 9 1028.2 1027.9 0.0
20/02:00am 9.3 5.9 5.7 78 1.7 E 13 22 7 12 1028.2 1027.9 0.0
20/01:30am 9.6 5.8 6.0 78 1.7 E 15 22 8 12 1028.2 1027.9 0.0
20/01:00am 9.7 5.6 6.1 78 1.7 ESE 17 24 9 13 1028.4 1028.1 0.0
20/12:30am 9.9 5.4 6.1 77 1.8 ESE 19 24 10 13 1028.6 1028.3 0.0
20/12:00am 10.1 5.6 6.3 77 1.8 E 19 28 10 15 1028.9 1028.5 0.0
 
Date/Time
WST
Temp
°C
App
Temp
°C
Dew
Point
°C
Rel
Hum
%
Delta-T
°C
Wind Press
QNH
hPa
Press
MSL
hPa
Rain since
9am
mm
Dir  Spd
km/h
Gust
km/h
Spd
kts
Gust
kts
19/11:30pm 10.2 6.5 6.4 77 1.8 E 15 22 8 12 1029.4 1029.0 0.0
19/11:00pm 10.4 6.3 6.4 76 1.9 ESE 17 24 9 13 1029.5 1029.1 0.0
19/10:30pm 10.6 6.2 6.6 76 1.9 ESE 19 26 10 14 1029.3 1028.9 0.0

Other Formats:

Comma delimited format used in spreadsheet applications
http://www.bom.gov.au/fwo/IDW60801/IDW60801.94628.axf

JavaScript Object Notation format (JSON) in row-major order
http://www.bom.gov.au/fwo/IDW60801/IDW60801.94628.json